Time;durP1;ratioP1;P1;durP2;ratioP2;P2;SDS_P1;SDS_P2;PMS_P1;PMS_P2;Temp;Humidity;BMP_temperature;BMP_pressure;BME280_temperature;BME280_humidity;BME280_pressure;Samples;Min_cycle;Max_cycle;Signal;HPM_P1;HPM_P2
2021/04/05 00:02:05;;;;;;;;;;;;;;;4.05;100.00;96742.94;5046174;28;19927;-59
2021/04/05 00:04:49;;;;;;;;;;;;;;;4.16;100.00;96749.59;5046489;28;19974;-59
2021/04/05 00:07:32;;;;;;;;;;;;;;;4.14;99.55;96757.34;5044675;28;19927;-58
2021/04/05 00:10:20;;;;;;;;;;;;;;;4.11;100.00;96760.75;5046594;28;19931;-59
2021/04/05 00:13:10;;;;;;;;;;;;;;;4.22;100.00;96742.75;5045732;28;19979;-58
2021/04/05 00:15:54;;;;;;;;;;;;;;;4.30;100.00;96761.06;5045795;28;19969;-59
2021/04/05 00:18:38;;;;;;;;;;;;;;;4.37;100.00;96750.38;5046442;28;20004;-59
2021/04/05 00:21:22;;;;;;;;;;;;;;;4.50;98.04;96751.22;5045563;28;19986;-58
2021/04/05 00:24:07;;;;;;;;;;;;;;;4.50;97.44;96749.25;5046718;28;19929;-58
2021/04/05 00:26:51;;;;;;;;;;;;;;;4.48;96.72;96751.56;5046017;28;19927;-58
2021/04/05 00:29:35;;;;;;;;;;;;;;;4.51;96.91;96745.38;5045977;28;20034;-58
2021/04/05 00:32:19;;;;;;;;;;;;;;;4.44;98.58;96747.88;5046174;28;19950;-59
2021/04/05 00:35:05;;;;;;;;;;;;;;;4.29;99.65;96748.50;5046318;28;19994;-58
2021/04/05 00:37:50;;;;;;;;;;;;;;;4.29;99.84;96751.25;5045792;28;20393;-58
2021/04/05 00:40:44;;;;;;;;;;;;;;;4.22;100.00;96745.50;5045738;28;19927;-58
2021/04/05 00:43:28;;;;;;;;;;;;;;;4.27;100.00;96739.81;5046142;28;19928;-59
2021/04/05 00:46:13;;;;;;;;;;;;;;;4.20;100.00;96741.50;5045264;28;20084;-58
2021/04/05 00:48:57;;;;;;;;;;;;;;;4.20;100.00;96728.63;5045795;28;20528;-58
2021/04/05 00:51:41;;;;;;;;;;;;;;;4.22;100.00;96742.75;5045251;28;19942;-58
2021/04/05 00:54:25;;;;;;;;;;;;;;;4.18;99.30;96736.38;5045657;28;19986;-58
2021/04/05 00:57:09;;;;;;;;;;;;;;;4.26;100.00;96749.19;5045223;28;19928;-57
2021/04/05 00:59:53;;;;;;;;;;;;;;;4.32;100.00;96753.31;5045586;28;20350;-58
2021/04/05 01:02:37;;;;;;;;;;;;;;;4.33;99.61;96743.94;5046112;28;19967;-59
2021/04/05 01:05:21;;;;;;;;;;;;;;;4.45;97.89;96734.97;5043642;28;19931;-58
2021/04/05 01:08:07;;;;;;;;;;;;;;;4.40;98.96;96738.72;5045207;28;19928;-58
2021/04/05 01:10:51;;;;;;;;;;;;;;;4.40;99.55;96744.22;5043806;28;19927;-58
2021/04/05 01:13:35;;;;;;;;;;;;;;;4.47;98.43;96746.41;5045495;28;19986;-57
2021/04/05 01:16:20;;;;;;;;;;;;;;;4.50;98.82;96738.28;5044783;28;19944;-58
2021/04/05 01:19:04;;;;;;;;;;;;;;;4.15;100.00;96742.53;5045159;28;19927;-58
2021/04/05 01:21:49;;;;;;;;;;;;;;;4.33;100.00;96732.19;5044089;28;20010;-58
2021/04/05 01:24:33;;;;;;;;;;;;;;;4.40;100.00;96727.75;5044145;28;19928;-58
2021/04/05 01:27:16;;;;;;;;;;;;;;;3.85;100.00;96732.78;5044447;28;19943;-58
2021/04/05 01:30:01;;;;;;;;;;;;;;;3.87;100.00;96738.72;5045025;28;19927;-58
2021/04/05 01:32:45;;;;;;;;;;;;;;;4.05;100.00;96737.44;5045139;28;19927;-58
2021/04/05 01:35:30;;;;;;;;;;;;;;;4.09;100.00;96738.41;5044438;28;20023;-58
2021/04/05 01:38:15;;;;;;;;;;;;;;;4.20;99.84;96731.34;5043712;28;19943;-58
2021/04/05 01:40:59;;;;;;;;;;;;;;;4.11;99.09;96733.34;5044052;28;19931;-58
2021/04/05 01:43:43;;;;;;;;;;;;;;;4.13;98.74;96731.09;5045243;28;19928;-58
2021/04/05 01:46:31;;;;;;;;;;;;;;;4.15;98.37;96736.22;5044414;28;19994;-58
2021/04/05 01:49:17;;;;;;;;;;;;;;;4.13;99.67;96733.81;5044727;28;19979;-58
2021/04/05 01:52:00;;;;;;;;;;;;;;;4.25;98.78;96731.13;5044475;28;19927;-59
2021/04/05 01:54:44;;;;;;;;;;;;;;;4.22;98.78;96726.31;5044031;28;19955;-58
2021/04/05 01:57:28;;;;;;;;;;;;;;;4.31;99.58;96734.47;5043807;28;19974;-58
2021/04/05 02:00:18;;;;;;;;;;;;;;;4.32;99.17;96742.34;5044178;28;20449;-58
2021/04/05 02:03:07;;;;;;;;;;;;;;;4.39;100.00;96734.38;5043885;28;19994;-60
2021/04/05 02:05:52;;;;;;;;;;;;;;;4.38;100.00;96730.03;5044442;28;20303;-58
2021/04/05 02:08:37;;;;;;;;;;;;;;;4.39;100.00;96726.13;5044287;28;19932;-58
2021/04/05 02:11:25;;;;;;;;;;;;;;;4.47;100.00;96724.47;5043815;28;19927;-59
2021/04/05 02:14:09;;;;;;;;;;;;;;;4.62;100.00;96729.28;5043624;28;20408;-58
2021/04/05 02:16:53;;;;;;;;;;;;;;;4.65;99.55;96723.94;5044205;28;20307;-58
2021/04/05 02:19:38;;;;;;;;;;;;;;;4.57;99.26;96738.53;5043106;28;19943;-58
2021/04/05 02:22:23;;;;;;;;;;;;;;;4.53;99.25;96737.63;5043966;28;19927;-59
2021/04/05 02:25:07;;;;;;;;;;;;;;;4.55;99.27;96740.03;5042628;28;19982;-60
2021/04/05 02:27:51;;;;;;;;;;;;;;;4.58;99.94;96740.13;5042949;28;19932;-58
2021/04/05 02:30:35;;;;;;;;;;;;;;;4.69;99.44;96741.28;5047240;28;19994;-59
2021/04/05 02:33:19;;;;;;;;;;;;;;;4.74;99.63;96736.75;5048465;28;19927;-58
2021/04/05 02:36:04;;;;;;;;;;;;;;;4.73;97.42;96746.91;5048209;28;19978;-59
2021/04/05 02:38:50;;;;;;;;;;;;;;;4.74;96.65;96750.47;5048441;28;19969;-60
2021/04/05 02:41:35;;;;;;;;;;;;;;;4.85;95.29;96754.38;5047163;28;20413;-58
2021/04/05 02:44:19;;;;;;;;;;;;;;;4.73;96.18;96760.63;5047070;28;19927;-58
2021/04/05 02:47:04;;;;;;;;;;;;;;;4.68;97.55;96757.31;5047521;28;19927;-59
2021/04/05 02:49:48;;;;;;;;;;;;;;;4.54;98.86;96755.69;5046335;28;19978;-59
2021/04/05 02:52:34;;;;;;;;;;;;;;;4.66;99.58;96763.16;5047923;28;19963;-58
2021/04/05 02:55:18;;;;;;;;;;;;;;;4.72;99.23;96755.47;5047368;28;19931;-59
2021/04/05 02:58:06;;;;;;;;;;;;;;;4.69;98.69;96763.25;5046746;28;20066;-59
2021/04/05 03:00:50;;;;;;;;;;;;;;;1.99;96.97;96306.50;5046861;28;20530;-60
2021/04/05 03:03:44;;;;;;;;;;;;;;;4.76;97.70;96767.41;5047709;28;19927;-58
2021/04/05 03:06:29;;;;;;;;;;;;;;;4.77;97.80;96763.50;5046339;28;19986;-58
2021/04/05 03:09:13;;;;;;;;;;;;;;;4.83;96.23;96762.13;5046638;28;19927;-60
2021/04/05 03:11:57;;;;;;;;;;;;;;;4.71;97.98;96768.38;5047146;28;20456;-58
2021/04/05 03:14:42;;;;;;;;;;;;;;;4.79;98.39;96772.19;5046481;28;19978;-58
2021/04/05 03:17:28;;;;;;;;;;;;;;;4.83;98.30;96773.94;5045973;28;20334;-60
2021/04/05 03:20:19;;;;;;;;;;;;;;;4.81;98.56;96775.38;5046861;28;19935;-58
2021/04/05 03:23:04;;;;;;;;;;;;;;;4.87;98.36;96785.03;5047743;28;19927;-58
2021/04/05 03:25:47;;;;;;;;;;;;;;;4.85;99.26;96779.06;5047110;28;19928;-57
2021/04/05 03:28:31;;;;;;;;;;;;;;;4.81;100.00;96775.38;5046294;28;20353;-58
2021/04/05 03:31:17;;;;;;;;;;;;;;;4.83;99.80;96784.09;5045562;28;19978;-58
2021/04/05 03:34:04;;;;;;;;;;;;;;;4.69;99.24;96774.22;5047616;28;19927;-58
2021/04/05 03:36:53;;;;;;;;;;;;;;;4.71;99.38;96782.09;5045546;28;19927;-58
2021/04/05 03:39:38;;;;;;;;;;;;;;;4.53;99.34;96792.47;5047632;28;19982;-58
2021/04/05 03:42:21;;;;;;;;;;;;;;;4.53;100.00;96787.00;5047165;28;20450;-58
2021/04/05 03:45:26;;;;;;;;;;;;;;;4.65;100.00;96791.69;5046755;28;19936;-57
2021/04/05 03:48:27;;;;;;;;;;;;;;;4.64;100.00;96785.44;5045976;28;19927;-58
2021/04/05 03:51:13;;;;;;;;;;;;;;;4.66;99.08;96785.88;5046313;28;20410;-57
2021/04/05 03:54:11;;;;;;;;;;;;;;;4.62;99.79;96786.88;5046856;28;20395;-57
2021/04/05 03:56:58;;;;;;;;;;;;;;;4.60;98.71;96791.91;5046036;28;19927;-57
2021/04/05 03:59:44;;;;;;;;;;;;;;;4.67;98.34;96792.16;5047037;28;19963;-57
2021/04/05 04:02:32;;;;;;;;;;;;;;;4.59;99.84;96801.28;5045213;28;19970;-57
2021/04/05 04:05:23;;;;;;;;;;;;;;;4.66;99.85;96791.34;5046367;28;19931;-58
2021/04/05 04:08:18;;;;;;;;;;;;;;;4.56;99.40;96802.78;5046471;28;19986;-57
2021/04/05 04:11:07;;;;;;;;;;;;;;;4.58;98.49;96803.22;5046054;28;19927;-58
2021/04/05 04:13:54;;;;;;;;;;;;;;;4.65;96.99;96803.47;5046527;28;19929;-58
2021/04/05 04:16:38;;;;;;;;;;;;;;;4.62;96.70;96806.91;5045874;28;20459;-58
2021/04/05 04:19:22;;;;;;;;;;;;;;;4.58;98.80;96800.47;5046611;28;19970;-59
2021/04/05 04:22:07;;;;;;;;;;;;;;;4.51;98.28;96797.50;5045199;28;20043;-58
2021/04/05 04:24:52;;;;;;;;;;;;;;;4.52;98.35;96796.34;5045136;28;20045;-58
2021/04/05 04:27:37;;;;;;;;;;;;;;;4.52;99.44;96801.81;5046136;28;19927;-57
2021/04/05 04:30:32;;;;;;;;;;;;;;;4.57;98.75;96809.03;5045542;28;19931;-59
2021/04/05 04:33:16;;;;;;;;;;;;;;;4.45;99.20;96804.34;5044782;28;20725;-58
2021/04/05 04:36:00;;;;;;;;;;;;;;;4.53;99.02;96806.19;5045563;28;19928;-58
2021/04/05 04:38:44;;;;;;;;;;;;;;;4.58;98.91;96803.22;5046211;28;19932;-58
2021/04/05 04:41:29;;;;;;;;;;;;;;;4.58;97.13;96802.44;5045199;28;19971;-58
2021/04/05 04:44:13;;;;;;;;;;;;;;;4.57;97.82;96804.38;5045990;28;20382;-59
2021/04/05 04:46:57;;;;;;;;;;;;;;;4.62;97.63;96806.91;5045487;28;19927;-59
2021/04/05 04:49:45;;;;;;;;;;;;;;;4.63;97.04;96807.72;5045595;28;20315;-59
2021/04/05 04:52:29;;;;;;;;;;;;;;;4.76;96.96;96805.81;5045258;28;20391;-58
2021/04/05 04:55:14;;;;;;;;;;;;;;;4.65;99.08;96817.19;5044112;28;20453;-59
2021/04/05 04:57:59;;;;;;;;;;;;;;;4.73;96.92;96807.25;5045150;28;20409;-59
2021/04/05 05:00:43;;;;;;;;;;;;;;;4.81;96.65;96819.28;5045246;28;19966;-58
2021/04/05 05:03:28;;;;;;;;;;;;;;;4.85;96.84;96825.72;5045751;28;19927;-58
2021/04/05 05:06:14;;;;;;;;;;;;;;;4.77;96.27;96829.34;5044765;28;19970;-59
2021/04/05 05:08:59;;;;;;;;;;;;;;;4.73;97.51;96822.94;5038470;28;20418;-58
2021/04/05 05:11:43;;;;;;;;;;;;;;;4.73;96.93;96822.94;5025147;28;19928;-58
2021/04/05 05:14:27;;;;;;;;;;;;;;;4.75;96.75;96831.63;5025780;28;19979;-59
2021/04/05 05:17:11;;;;;;;;;;;;;;;4.69;97.21;96829.09;5025283;28;20864;-56
2021/04/05 05:19:55;;;;;;;;;;;;;;;4.68;98.14;96832.16;5025331;28;19927;-57
2021/04/05 05:22:43;;;;;;;;;;;;;;;4.62;98.48;96828.03;5025099;28;19964;-58
2021/04/05 05:25:30;;;;;;;;;;;;;;;4.69;99.13;96829.09;5024762;28;20039;-59
2021/04/05 05:28:17;;;;;;;;;;;;;;;4.76;99.13;96838.72;5025190;28;19927;-58
2021/04/05 05:31:01;;;;;;;;;;;;;;;4.65;98.95;96838.31;5024578;28;20374;-56
2021/04/05 05:33:45;;;;;;;;;;;;;;;4.50;100.00;96842.50;5024159;28;19927;-58
2021/04/05 05:36:29;;;;;;;;;;;;;;;4.60;100.00;96844.81;5024711;28;20414;-57
2021/04/05 05:39:13;;;;;;;;;;;;;;;4.58;100.00;96836.13;5025232;28;19928;-57
2021/04/05 05:41:57;;;;;;;;;;;;;;;4.68;100.00;96849.44;5023946;28;19928;-59
2021/04/05 05:44:44;;;;;;;;;;;;;;;4.81;99.77;96838.50;5025151;28;19923;-58
2021/04/05 05:47:31;;;;;;;;;;;;;;;4.54;100.00;96846.19;5024505;28;20037;-58
2021/04/05 05:50:18;;;;;;;;;;;;;;;4.52;100.00;96851.19;5022539;28;20180;-58
2021/04/05 05:53:08;;;;;;;;;;;;;;;4.75;100.00;96850.81;5024228;28;19943;-57
2021/04/05 05:56:11;;;;;;;;;;;;;;;4.76;98.73;96849.69;5023858;28;20003;-56
2021/04/05 05:59:06;;;;;;;;;;;;;;;4.84;97.16;96857.06;5028522;28;20058;-62
2021/04/05 06:02:01;;;;;;;;;;;;;;;4.92;98.05;96859.69;5036411;28;19974;-59
2021/04/05 06:04:57;;;;;;;;;;;;;;;4.93;97.98;96850.34;5034526;28;19970;-61
2021/04/05 06:07:49;;;;;;;;;;;;;;;5.00;98.78;96858.00;5043393;28;20349;-61
2021/04/05 06:10:52;;;;;;;;;;;;;;;5.06;98.37;96848.44;5023899;28;19932;-61
2021/04/05 06:13:39;;;;;;;;;;;;;;;5.28;96.12;96850.75;5024661;28;20405;-59
2021/04/05 06:16:23;;;;;;;;;;;;;;;5.30;96.60;96860.25;5026706;28;20031;-64
2021/04/05 06:19:07;;;;;;;;;;;;;;;5.29;95.49;96863.31;5038825;28;19931;-61
2021/04/05 06:21:58;;;;;;;;;;;;;;;5.39;95.47;96868.41;5024193;28;20415;-62
2021/04/05 06:24:53;;;;;;;;;;;;;;;5.40;93.23;96875.47;5027533;28;20006;-58
2021/04/05 06:27:41;;;;;;;;;;;;;;;5.53;94.23;96879.84;5024196;28;20035;-58
2021/04/05 06:30:45;;;;;;;;;;;;;;;5.49;94.39;96879.72;5025453;28;19947;-62
2021/04/05 06:33:33;;;;;;;;;;;;;;;5.70;95.01;96874.94;5024133;28;19979;-60
2021/04/05 06:36:17;;;;;;;;;;;;;;;5.90;92.96;96876.78;5028763;28;19932;-62
2021/04/05 06:39:03;;;;;;;;;;;;;;;6.03;91.96;96872.91;5040033;28;19928;-60
2021/04/05 06:41:47;;;;;;;;;;;;;;;6.18;90.71;96885.94;5023423;28;20299;-61
2021/04/05 06:44:50;;;;;;;;;;;;;;;6.24;91.60;96892.00;5028565;28;20016;-60
2021/04/05 06:47:40;;;;;;;;;;;;;;;6.32;87.75;96893.03;5036398;28;20097;-60
2021/04/05 06:50:47;;;;;;;;;;;;;;;6.31;87.19;96905.97;5030080;28;19990;-60
2021/04/05 06:53:50;;;;;;;;;;;;;;;6.40;89.83;96903.91;5042044;28;20299;-59
2021/04/05 06:56:55;;;;;;;;;;;;;;;6.52;86.37;96903.88;5025049;28;20391;-59
2021/04/05 06:59:51;;;;;;;;;;;;;;;6.66;87.20;96907.03;5024278;28;20029;-59
2021/04/05 07:02:54;;;;;;;;;;;;;;;6.79;85.29;96916.88;5029788;28;19932;-60
2021/04/05 07:05:41;;;;;;;;;;;;;;;6.96;84.50;96916.56;5036201;28;20535;-62
2021/04/05 07:08:34;;;;;;;;;;;;;;;6.92;83.34;96918.44;5032384;28;19941;-63
2021/04/05 07:11:26;;;;;;;;;;;;;;;7.16;84.56;96925.81;5034349;28;19983;-61
2021/04/05 07:14:29;;;;;;;;;;;;;;;7.30;82.07;96915.94;5033143;28;20012;-63
2021/04/05 07:17:28;;;;;;;;;;;;;;;7.62;82.51;96922.31;5032492;28;20477;-62
2021/04/05 07:20:31;;;;;;;;;;;;;;;7.78;79.83;96925.13;5036343;28;19956;-62
2021/04/05 07:23:21;;;;;;;;;;;;;;;7.94;82.50;96926.69;5039064;28;19944;-60
2021/04/05 07:26:05;;;;;;;;;;;;;;;8.24;79.68;96924.28;5037413;28;19974;-73
2021/04/05 07:28:55;;;;;;;;;;;;;;;8.38;78.64;96927.38;5035301;28;19987;-60
2021/04/05 07:31:56;;;;;;;;;;;;;;;8.40;77.17;96936.13;5032456;28;19994;-65
2021/04/05 07:34:48;;;;;;;;;;;;;;;8.68;75.79;96931.25;5050071;28;19950;-63
2021/04/05 07:37:38;;;;;;;;;;;;;;;8.67;75.68;96930.47;5045851;28;20461;-65
2021/04/05 07:40:25;;;;;;;;;;;;;;;8.81;74.25;96935.47;5031290;28;20406;-61
2021/04/05 07:43:16;;;;;;;;;;;;;;;8.81;75.96;96941.81;5029092;28;19931;-60
2021/04/05 07:46:19;;;;;;;;;;;;;;;9.09;76.64;96941.59;5039580;28;20334;-61
2021/04/05 07:49:12;;;;;;;;;;;;;;;9.18;72.37;96950.50;5035916;28;19927;-62
2021/04/05 07:52:01;;;;;;;;;;;;;;;9.17;69.99;96954.41;5027489;28;20012;-60
2021/04/05 07:54:46;;;;;;;;;;;;;;;9.42;67.36;96949.41;5043394;28;19995;-62
2021/04/05 07:57:49;;;;;;;;;;;;;;;9.42;72.12;96950.19;5036520;28;20409;-62
2021/04/05 08:00:38;;;;;;;;;;;;;;;9.60;73.39;96956.88;5026087;28;20016;-58
2021/04/05 08:03:32;;;;;;;;;;;;;;;9.89;70.61;96947.94;5031941;28;19994;-63
2021/04/05 08:06:17;;;;;;;;;;;;;;;10.12;69.23;96954.28;5040381;28;20016;-65
2021/04/05 08:09:04;;;;;;;;;;;;;;;10.16;64.71;96959.91;5035173;28;20304;-63
2021/04/05 08:11:51;;;;;;;;;;;;;;;10.45;65.06;96959.19;5035251;28;20011;-64
2021/04/05 08:14:54;;;;;;;;;;;;;;;10.27;70.20;96958.91;5033828;28;20375;-62
2021/04/05 08:17:38;;;;;;;;;;;;;;;10.28;67.56;96954.97;5037808;28;19973;-63
2021/04/05 08:20:25;;;;;;;;;;;;;;;10.65;68.97;96953.16;5045911;28;20019;-62
2021/04/05 08:23:27;;;;;;;;;;;;;;;10.91;65.71;96955.13;5031780;28;19932;-62
2021/04/05 08:26:25;;;;;;;;;;;;;;;10.52;64.36;96965.66;5036003;28;19966;-64
2021/04/05 08:29:44;;;;;;;;;;;;;;;10.27;63.26;96958.13;5031920;28;19932;-60
2021/04/05 08:32:41;;;;;;;;;;;;;;;9.81;66.11;96960.03;5039325;28;19947;-61
2021/04/05 08:35:35;;;;;;;;;;;;;;;9.77;67.15;96959.16;5037318;28;19998;-64
2021/04/05 08:38:30;;;;;;;;;;;;;;;9.50;68.17;96962.97;5034666;28;20354;-63
2021/04/05 08:41:23;;;;;;;;;;;;;;;9.28;68.80;96960.97;5026863;28;19927;-62
2021/04/05 08:44:13;;;;;;;;;;;;;;;9.12;72.91;96962.97;5028617;28;20130;-62
2021/04/05 08:46:59;;;;;;;;;;;;;;;9.02;72.07;96966.34;5029392;28;19970;-62
2021/04/05 08:49:45;;;;;;;;;;;;;;;8.91;70.83;96963.34;5036067;28;20410;-63
2021/04/05 08:52:31;;;;;;;;;;;;;;;8.78;71.88;96958.31;5045596;28;19974;-60
2021/04/05 08:55:18;;;;;;;;;;;;;;;8.70;73.40;96962.06;5034008;28;19981;-63
2021/04/05 08:58:11;;;;;;;;;;;;;;;9.03;77.09;96960.44;5037866;28;20331;-62
2021/04/05 09:00:57;;;;;;;;;;;;;;;9.36;73.27;96957.19;5025971;28;20004;-63
2021/04/05 09:03:43;;;;;;;;;;;;;;;9.57;71.71;96952.06;5036853;28;19931;-61
2021/04/05 09:06:43;;;;;;;;;;;;;;;9.75;73.17;96953.22;5025156;28;19928;-62
2021/04/05 09:09:28;;;;;;;;;;;;;;;10.30;63.11;96947.09;5040494;28;19931;-62
2021/04/05 09:12:12;;;;;;;;;;;;;;;10.38;63.74;96943.28;5044848;28;20315;-63
2021/04/05 09:15:14;;;;;;;;;;;;;;;10.63;66.58;96944.47;5044207;28;20448;-63
2021/04/05 09:17:58;;;;;;;;;;;;;;;11.17;63.33;96930.16;5045271;28;20357;-62
2021/04/05 09:20:54;;;;;;;;;;;;;;;11.40;56.22;96938.34;5043248;28;19989;-61
2021/04/05 09:23:57;;;;;;;;;;;;;;;11.90;60.92;96929.44;5045378;28;20575;-62
2021/04/05 09:27:08;;;;;;;;;;;;;;;12.21;53.65;96937.25;5043495;28;19924;-62
2021/04/05 09:30:10;;;;;;;;;;;;;;;12.01;54.07;96933.13;5045800;28;20017;-62
2021/04/05 09:33:13;;;;;;;;;;;;;;;12.29;55.32;96925.03;5027375;28;19990;-64
2021/04/05 09:36:13;;;;;;;;;;;;;;;12.63;55.19;96929.25;5028725;28;19982;-57
2021/04/05 09:39:00;;;;;;;;;;;;;;;13.19;55.86;96926.88;5036650;28;20375;-68
2021/04/05 09:42:02;;;;;;;;;;;;;;;12.95;55.41;96924.72;5024081;28;19931;-66
2021/04/05 09:44:47;;;;;;;;;;;;;;;12.26;55.10;96920.25;5025325;28;19971;-63
2021/04/05 09:47:31;;;;;;;;;;;;;;;11.96;55.99;96877.94;5024834;28;20024;-63
2021/04/05 09:50:35;;;;;;;;;;;;;;;12.16;58.29;96918.97;5023720;28;19963;-62
2021/04/05 09:53:19;;;;;;;;;;;;;;;12.12;54.96;96931.25;5035122;28;19940;-63
2021/04/05 09:56:09;;;;;;;;;;;;;;;12.26;54.82;96931.38;5034892;28;20035;-62
2021/04/05 09:59:00;;;;;;;;;;;;;;;12.09;56.00;96930.00;5028147;28;19970;-64
2021/04/05 10:01:48;;;;;;;;;;;;;;;12.04;54.49;96935.13;5041743;28;20473;-63
2021/04/05 10:04:33;;;;;;;;;;;;;;;11.42;58.44;96925.72;5036432;28;20022;-61
2021/04/05 10:07:18;;;;;;;;;;;;;;;11.10;60.99;96924.50;5024041;28;19928;-61
2021/04/05 10:10:02;;;;;;;;;;;;;;;10.76;63.18;96919.31;5017293;28;20453;-72
2021/04/05 10:12:47;;;;;;;;;;;;;;;10.16;62.26;96924.69;5024740;28;20403;-61
2021/04/05 10:15:31;;;;;;;;;;;;;;;10.03;69.59;96923.28;5031916;28;20016;-62
2021/04/05 10:18:16;;;;;;;;;;;;;;;10.08;71.06;96925.78;5029032;28;19927;-64
2021/04/05 10:21:02;;;;;;;;;;;;;;;9.97;72.71;96910.94;5022667;28;19931;-66
2021/04/05 10:23:46;;;;;;;;;;;;;;;10.23;64.22;96905.44;5022610;28;20016;-70
2021/04/05 10:26:33;;;;;;;;;;;;;;;10.49;66.69;96897.16;5024106;28;19947;-63
2021/04/05 10:29:18;;;;;;;;;;;;;;;10.68;64.11;96890.69;5023772;28;19928;-63
2021/04/05 10:32:03;;;;;;;;;;;;;;;10.63;67.11;96891.84;5030144;28;19932;-62
2021/04/05 10:34:51;;;;;;;;;;;;;;;10.83;60.08;96888.94;5039097;28;20350;-59
2021/04/05 10:37:39;;;;;;;;;;;;;;;10.65;60.90;96886.69;5033536;28;20407;-63
2021/04/05 10:40:23;;;;;;;;;;;;;;;10.76;58.78;96884.09;5021086;28;20014;-64
2021/04/05 10:43:10;;;;;;;;;;;;;;;10.93;59.22;96871.63;5023555;28;20096;-67
2021/04/05 10:45:57;;;;;;;;;;;;;;;10.93;58.13;96874.41;5024934;28;19991;-66
2021/04/05 10:48:49;;;;;;;;;;;;;;;11.24;57.61;96874.00;5023470;28;19967;-65
2021/04/05 10:51:37;;;;;;;;;;;;;;;11.82;63.00;96872.28;5025478;28;19971;-60
2021/04/05 10:54:24;;;;;;;;;;;;;;;12.12;58.15;96865.38;5036855;28;19928;-63
2021/04/05 10:57:10;;;;;;;;;;;;;;;12.49;60.30;96851.38;5027294;28;20574;-68
2021/04/05 10:59:55;;;;;;;;;;;;;;;12.50;59.50;96846.63;5035001;28;20290;-65
2021/04/05 11:02:42;;;;;;;;;;;;;;;12.44;55.25;96843.41;5040287;28;19982;-66
2021/04/05 11:05:30;;;;;;;;;;;;;;;11.77;52.46;96842.91;5034075;28;19955;-63
2021/04/05 11:08:16;;;;;;;;;;;;;;;12.52;54.80;96838.69;5031276;28;20386;-60
2021/04/05 11:11:03;;;;;;;;;;;;;;;12.87;52.66;96834.13;5026899;28;19964;-62
2021/04/05 11:13:49;;;;;;;;;;;;;;;12.54;51.66;96766.84;5047550;28;19959;-63
2021/04/05 11:16:33;;;;;;;;;;;;;;;12.71;51.69;96830.84;5044404;28;19968;-70
2021/04/05 11:19:23;;;;;;;;;;;;;;;13.00;53.47;96821.50;5045992;28;20066;-62
2021/04/05 11:22:13;;;;;;;;;;;;;;;13.21;51.11;96816.03;5032749;28;19936;-62
2021/04/05 11:25:02;;;;;;;;;;;;;;;13.26;50.24;96807.28;5027355;28;19940;-65
2021/04/05 11:27:48;;;;;;;;;;;;;;;13.23;52.15;96810.06;5026862;28;20009;-60
2021/04/05 11:30:34;;;;;;;;;;;;;;;12.99;51.67;96808.72;5026515;28;19935;-62
2021/04/05 11:33:24;;;;;;;;;;;;;;;12.95;48.95;96807.94;5035598;28;20299;-61
2021/04/05 11:36:09;;;;;;;;;;;;;;;13.16;49.33;96801.69;5016780;28;19952;-65
2021/04/05 11:39:31;;;;;;;;;;;;;;;13.04;48.78;96796.50;5014529;27;65157;-59
2021/04/05 11:42:16;;;;;;;;;;;;;;;12.53;48.69;96796.63;4993769;28;168489;-72
2021/04/05 11:45:29;;;;;;;;;;;;;;;12.74;47.34;96785.59;5000303;28;20018;-62
2021/04/05 11:47:55;;;;;;;;;;;;;;;12.73;48.39;96786.81;5025389;28;19929;-61
2021/04/05 11:50:25;;;;;;;;;;;;;;;12.28;48.72;96784.59;5008046;28;70746;-61
2021/04/05 11:54:37;;;;;;;;;;;;;;;12.15;49.53;96786.09;3566096;39;19944;-71
2021/04/05 12:01:47;;;;;;;;;;;;;;;12.56;50.21;96778.38;5001937;28;20659;-61
2021/04/05 12:04:22;;;;;;;;;;;;;;;12.81;48.93;96768.97;4961794;28;19930;-59
2021/04/05 12:07:25;;;;;;;5.93;3.83;;;;;;;12.09;49.87;96615.50;4986240;28;20387;-68
2021/04/05 12:10:02;;;;;;;3.25;3.05;;;;;;;13.26;45.88;96753.63;4966120;28;20133;-62
2021/04/05 12:12:39;;;;;;;3.47;3.17;;;;;;;13.08;45.71;96713.88;4958918;28;20138;-60
2021/04/05 12:15:08;;;;;;;3.97;3.25;;;;;;;12.94;45.55;96763.84;4959140;28;20867;-63
2021/04/05 12:17:34;;;;;;;3.40;2.78;;;;;;;13.40;44.43;96748.88;4959537;28;20053;-61
2021/04/05 12:20:03;;;;;;;3.58;3.28;;;;;;;12.93;45.55;96679.66;4959872;28;20158;-62
2021/04/05 12:22:32;;;;;;;12.70;6.70;;;;;;;13.20;44.02;96724.59;4958670;28;20049;-63
2021/04/05 12:25:00;;;;;;;16.02;7.78;;;;;;;12.11;44.78;96655.56;4961159;28;20345;-62
2021/04/05 12:27:32;;;;;;;4.75;3.22;;;;;;;12.47;43.91;96742.59;4974511;28;20034;-61
2021/04/05 12:30:03;;;;;;;7.45;6.20;;;;;;;12.31;44.90;96733.00;4989275;28;20586;-61
2021/04/05 12:32:30;;;;;;;4.25;2.95;;;;;;;11.94;45.69;96686.00;4995984;28;20038;-62
2021/04/05 12:34:58;;;;;;;6.00;3.45;;;;;;;12.08;44.65;96730.50;4999839;28;20365;-63
2021/04/05 12:37:26;;;;;;;3.92;2.92;;;;;;;11.62;45.09;96696.06;4998954;28;20073;-63
2021/04/05 12:39:54;;;;;;;4.00;3.22;;;;;;;11.88;46.01;96734.75;4997804;28;20587;-63
2021/04/05 12:42:20;;;;;;;4.32;3.03;;;;;;;11.87;46.09;96735.94;4999582;28;20041;-63
2021/04/05 12:44:53;;;;;;;4.20;3.35;;;;;;;12.17;46.68;96723.41;5001115;28;20061;-62
2021/04/05 12:47:19;;;;;;;4.03;3.63;;;;;;;11.89;46.07;96678.03;5000090;28;20057;-62
2021/04/05 12:49:48;;;;;;;3.78;3.47;;;;;;;12.26;46.51;96719.50;4997872;28;20527;-62
2021/04/05 12:52:31;;;;;;;4.90;3.63;;;;;;;12.14;46.18;96706.72;4996411;28;20038;-61
2021/04/05 12:55:02;;;;;;;4.57;3.55;;;;;;;12.20;46.21;96710.75;4996218;28;20045;-62
2021/04/05 12:57:31;;;;;;;3.80;3.38;;;;;;;11.71;44.76;96638.31;4995865;28;20046;-62
2021/04/05 12:59:58;;;;;;;6.35;3.97;;;;;;;12.46;45.92;96724.34;4999267;28;20156;-62
2021/04/05 13:02:27;;;;;;;4.53;3.53;;;;;;;12.27;46.22;96683.00;4998757;28;20111;-62
2021/04/05 13:05:03;;;;;;;7.57;5.28;;;;;;;11.84;48.12;96625.66;4999970;28;20049;-63
2021/04/05 13:07:54;;;;;;;14.98;6.90;;;;;;;12.30;48.95;96723.88;5000072;28;20120;-62
2021/04/05 13:10:23;;;;;;;18.63;7.60;;;;;;;11.54;49.42;96636.19;4999726;28;20034;-63
2021/04/05 13:12:54;;;;;;;19.38;9.18;;;;;;;12.05;50.93;96720.16;4999831;28;20034;-64
2021/04/05 13:15:27;;;;;;;35.88;14.52;;;;;;;11.93;50.48;96692.75;4998139;28;20139;-62
2021/04/05 13:17:56;;;;;;;13.07;7.78;;;;;;;11.75;48.90;96694.59;4991541;28;20072;-62
2021/04/05 13:20:28;;;;;;;9.13;4.90;;;;;;;11.99;49.30;96707.84;4985087;28;20547;-63
2021/04/05 13:22:58;;;;;;;9.52;4.82;;;;;;;12.13;51.13;96702.38;4986992;28;20321;-63
2021/04/05 13:25:37;;;;;;;3.13;2.55;;;;;;;11.98;48.74;96709.03;4985289;28;20457;-62
2021/04/05 13:28:04;;;;;;;3.85;2.67;;;;;;;12.06;48.57;96699.56;4986765;28;20141;-62
2021/04/05 13:30:32;;;;;;;39.75;23.15;;;;;;;11.99;48.37;96703.09;4986090;28;20425;-62
2021/04/05 13:33:00;;;;;;;3.78;3.03;;;;;;;12.09;48.06;96704.34;4984261;28;20038;-62
2021/04/05 13:35:28;;;;;;;3.70;2.90;;;;;;;12.07;48.82;96660.31;4985083;28;20104;-62
2021/04/05 13:37:57;;;;;;;7.13;3.40;;;;;;;11.89;48.03;96625.31;4985113;28;20030;-63
2021/04/05 13:40:28;;;;;;;3.13;2.85;;;;;;;12.01;48.14;96688.84;4984409;28;20121;-62
2021/04/05 13:42:56;;;;;;;3.53;2.88;;;;;;;12.14;47.67;96684.50;4987038;28;20041;-62
2021/04/05 13:45:33;;;;;;;6.43;3.58;;;;;;;12.28;48.09;96659.63;4985480;28;20040;-63
2021/04/05 13:48:05;;;;;;;10.35;7.15;;;;;;;12.15;48.94;96625.81;4983750;28;20126;-60
2021/04/05 13:50:33;;;;;;;5.17;4.20;;;;;;;11.64;47.15;96549.47;4983952;28;20125;-61
2021/04/05 13:53:00;;;;;;;2.63;2.42;;;;;;;12.67;45.26;96685.56;4983663;28;20082;-62
2021/04/05 13:55:31;;;;;;;4.13;3.08;;;;;;;12.69;46.20;96679.59;4984422;28;20505;-62
2021/04/05 13:58:05;;;;;;;7.35;4.53;;;;;;;12.64;46.44;96675.22;4985282;28;20149;-62
2021/04/05 14:00:32;;;;;;;6.60;3.90;;;;;;;12.37;47.92;96662.00;4985466;28;20038;-61
2021/04/05 14:03:04;;;;;;;6.25;4.00;;;;;;;12.56;47.50;96679.16;4984519;28;20117;-63
2021/04/05 14:05:55;;;;;;;3.85;3.05;;;;;;;11.37;45.99;96448.28;4985139;28;20249;-62
2021/04/05 14:08:23;;;;;;;3.70;3.00;;;;;;;12.05;45.74;96600.81;4984529;28;20449;-60
2021/04/05 14:11:11;;;;;;;2.30;2.10;;;;;;;11.98;46.18;96659.84;4984645;28;20050;-61
2021/04/05 14:13:36;;;;;;;3.10;2.80;;;;;;;11.94;46.20;96611.06;4984138;28;20250;-63
2021/04/05 14:16:15;;;;;;;4.60;2.05;;;;;;;12.89;42.66;96564.88;4983854;28;20524;-61
2021/04/05 14:18:42;;;;;;;3.00;2.80;;;;;;;12.95;45.96;96663.38;4984644;28;20038;-62